Meath Environmental Platform

Observations for Trim Market St

Time AQI Temp °C Hum % Pres Pa CO μg/m³ H₂S μg/m³ NO μg/m³ NO₂ μg/m³ O₃ μg/m³ SO₂ μg/m³ PM1 μg/m³ PM2.5 μg/m³ PM10 μg/m³
Wednesday 26 August 2026
19:03 3 24 55 57,167 0 3.99 1.16 21.08 89.59 0 4.28 7.32 9.68
18:58 3 24.2 54 56,350 0 2.8 1.09 17.38 97.03 0 4.28 6.38 9.7
18:53 3 24.5 53 55,820 0 0 1.05 16.71 88.17 0 2.85 5.92 7.53
18:52 3 24.5 52 55,887 0 0 1.05 14.49 95.23 0 3.56 5.42 6.8
18:48 3 24.7 52 56,353 0 0 1.06 13.38 99.77 0 3.56 5.43 6.8
18:47 3 24.7 52 56,428 0 0 1.07 13.66 99.96 0 5.7 8.5 11.19
18:46 2 24.8 52 56,479 0 0 1.12 13.54 95.87 0 4.99 6.97 11.19
18:45 3 24.8 52 56,487 0 0 1.09 13.54 97.02 0 4.28 6.46 8.26
18:44 3 24.8 52 56,344 0 0 1.11 13.32 96.52 0 3.56 6.46 8.26
18:43 2 24.9 52 56,114 0 0 1.09 14.2 95.61 0 4.99 6.97 9
18:42 3 24.9 52 56,152 0 0 1.15 13.64 97.69 0 4.28 6.97 9
18:41 3 24.9 52 56,140 0 0.35 1.05 15.09 98.4 0 4.28 6.47 8.26
18:40 2 25 52 56,298 0 0.88 1.04 14.74 94.84 0 3.56 6.98 9
18:39 2 25.1 52 56,400 0 2.1 1.05 17.52 93.51 0 4.99 8.52 11.2
18:38 2 25.1 52 56,567 0 1.44 1.06 17.56 95.76 0 7.13 9.04 13.41
18:37 2 25.1 52 56,727 0 0.66 1.04 16.04 93.86 0 5.7 8.53 13.42
18:36 2 25.1 52 56,806 0 0.56 1.16 14.99 98.63 0 4.99 7.51 10.47
18:35 2 25.1 52 56,772 0 1.06 1.21 15.63 97.18 0 4.99 7.51 9.74
18:31 2 25.3 51 57,256 0 2.49 1.52 21.91 130.23 0 4.99 7.53 9.74
18:30 2 25.3 51 57,450 0 2.76 1.56 23.24 117.99 0 4.99 7.54 11.96